Time;durP1;ratioP1;P1;durP2;ratioP2;P2;SDS_P1;SDS_P2;PMS_P1;PMS_P2;Temp;Humidity;BMP_temperature;BMP_pressure;BME280_temperature;BME280_humidity;BME280_pressure;Samples;Min_cycle;Max_cycle;Signal;HPM_P1;HPM_P2
2022/02/07 00:01:08;;;;;;;7.53;2.42;;;;;;;;;;5113978;27;20223;-75
2022/02/07 00:03:43;;;;;;;7.32;2.00;;;;;;;;;;5118854;27;20237;-75
2022/02/07 00:06:10;;;;;;;12.60;2.90;;;;;;;;;;5117496;27;20281;-75
2022/02/07 00:08:37;;;;;;;7.97;2.83;;;;;;;;;;5108371;28;20200;-75
2022/02/07 00:11:05;;;;;;;6.72;3.45;;;;;;;;;;5110270;28;20580;-75
2022/02/07 00:13:32;;;;;;;16.50;3.63;;;;;;;;;;5093746;28;20205;-76
2022/02/07 00:16:00;;;;;;;9.85;3.38;;;;;;;;;;5105044;27;20216;-76
2022/02/07 00:18:28;;;;;;;7.95;2.35;;;;;;;;;;5118721;27;20204;-75
2022/02/07 00:20:56;;;;;;;7.55;2.10;;;;;;;;;;5111905;27;20228;-75
2022/02/07 00:23:23;;;;;;;6.47;1.80;;;;;;;;;;5110659;28;20207;-77
2022/02/07 00:25:50;;;;;;;3.97;1.95;;;;;;;;;;5110496;28;20204;-76
2022/02/07 00:28:18;;;;;;;4.28;1.90;;;;;;;;;;5108961;28;20694;-74
2022/02/07 00:30:45;;;;;;;10.60;2.92;;;;;;;;;;5110731;28;20216;-75
2022/02/07 00:33:13;;;;;;;12.40;2.22;;;;;;;;;;5113172;27;20625;-74
2022/02/07 00:35:41;;;;;;;5.25;2.03;;;;;;;;;;5118647;27;20199;-77
2022/02/07 00:38:12;;;;;;;5.25;2.33;;;;;;;;;;5119181;27;20662;-74
2022/02/07 00:40:46;;;;;;;3.88;3.40;;;;;;;;;;5110285;28;20868;-74
2022/02/07 00:43:26;;;;;;;6.18;2.28;;;;;;;;;;5111148;28;20199;-76
2022/02/07 00:45:56;;;;;;;5.47;2.00;;;;;;;;;;5111415;28;20291;-75
2022/02/07 00:48:25;;;;;;;4.72;1.35;;;;;;;;;;5102970;28;20555;-75
2022/02/07 00:50:55;;;;;;;13.35;1.73;;;;;;;;;;5092327;28;20902;-74
2022/02/07 00:53:22;;;;;;;3.05;1.42;;;;;;;;;;5090767;28;20196;-75
2022/02/07 00:55:50;;;;;;;3.83;1.48;;;;;;;;;;5111690;27;20227;-75
2022/02/07 00:58:17;;;;;;;6.00;1.42;;;;;;;;;;5117016;27;20192;-76
2022/02/07 01:00:44;;;;;;;8.02;2.10;;;;;;;;;;5110594;28;20223;-76
2022/02/07 01:03:11;;;;;;;7.00;1.65;;;;;;;;;;5107509;28;20189;-75
2022/02/07 01:05:40;;;;;;;10.35;2.50;;;;;;;;;;5110870;28;20197;-75
2022/02/07 01:08:08;;;;;;;7.63;2.03;;;;;;;;;;5111517;28;20289;-75
2022/02/07 01:10:44;;;;;;;10.82;2.20;;;;;;;;;;5108752;28;20223;-76
2022/02/07 01:13:19;;;;;;;5.40;2.10;;;;;;;;;;5115309;28;20660;-75
2022/02/07 01:15:54;;;;;;;9.35;2.10;;;;;;;;;;5116762;28;20256;-75
2022/02/07 01:48:14;;;;;;;11.30;2.30;;;;;;;;;;5093354;28;20712;-76
2022/02/07 01:53:30;;;;;;;10.98;2.78;;;;;;;;;;5118584;27;20184;-75
2022/02/07 01:56:02;;;;;;;7.00;2.05;;;;;;;;;;5121536;27;20603;-75
2022/02/07 01:58:29;;;;;;;17.70;3.08;;;;;;;;;;5116644;27;20626;-75
2022/02/07 02:00:56;;;;;;;10.25;2.75;;;;;;;;;;5111675;28;20305;-75
2022/02/07 02:03:23;;;;;;;15.73;2.63;;;;;;;;;;5106001;28;20196;-75
2022/02/07 02:05:51;;;;;;;14.88;3.08;;;;;;;;;;5111824;28;20222;-75
2022/02/07 02:08:19;;;;;;;11.85;2.47;;;;;;;;;;5111895;28;20205;-75
2022/02/07 02:10:52;;;;;;;14.68;2.58;;;;;;;;;;5114779;28;20748;-76
2022/02/07 02:13:23;;;;;;;10.43;2.47;;;;;;;;;;5113698;28;20224;-75
2022/02/07 02:15:56;;;;;;;9.10;3.00;;;;;;;;;;5120664;27;20244;-75
2022/02/07 02:37:17;;;;;;;8.27;2.63;;;;;;;;;;5117096;27;20527;-75
2022/02/07 02:47:49;;;;;;;11.45;2.85;;;;;;;;;;5091323;28;20193;-74
2022/02/07 02:50:27;;;;;;;11.98;2.25;;;;;;;;;;5091347;28;20250;-75
2022/02/07 02:52:54;;;;;;;12.35;2.55;;;;;;;;;;5097426;28;20249;-75
2022/02/07 02:55:23;;;;;;;13.88;2.97;;;;;;;;;;5115754;27;20498;-75
2022/02/07 02:57:50;;;;;;;6.22;2.20;;;;;;;;;;5120360;27;20200;-75
2022/02/07 03:00:17;;;;;;;6.65;2.20;;;;;;;;;;5111220;27;20231;-76
2022/02/07 03:02:45;;;;;;;10.38;2.35;;;;;;;;;;5110406;28;20220;-75
2022/02/07 03:05:12;;;;;;;13.93;2.15;;;;;;;;;;5112429;28;20204;-75
2022/02/07 03:07:39;;;;;;;4.70;1.92;;;;;;;;;;5111074;28;20201;-76
2022/02/07 03:10:07;;;;;;;4.00;2.10;;;;;;;;;;5111274;28;20585;-76
2022/02/07 03:12:44;;;;;;;8.88;3.17;;;;;;;;;;5113590;27;20188;-75
2022/02/07 03:17:53;;;;;;;8.25;2.33;;;;;;;;;;5111343;28;20602;-76
2022/02/07 03:20:20;;;;;;;6.85;2.47;;;;;;;;;;5110120;28;20217;-75
2022/02/07 03:22:47;;;;;;;8.50;2.80;;;;;;;;;;5112202;28;20216;-77
2022/02/07 03:25:14;;;;;;;5.50;2.63;;;;;;;;;;5112276;28;20204;-76
2022/02/07 03:27:42;;;;;;;5.40;2.08;;;;;;;;;;5099029;28;20284;-75
2022/02/07 03:30:10;;;;;;;10.50;2.85;;;;;;;;;;5115127;27;20219;-76
2022/02/07 03:32:37;;;;;;;4.93;2.17;;;;;;;;;;5117720;27;20184;-77
2022/02/07 03:35:04;;;;;;;12.65;2.10;;;;;;;;;;5099434;27;20275;-75
2022/02/07 03:37:32;;;;;;;7.45;2.10;;;;;;;;;;5109935;28;20196;-76
2022/02/07 03:39:59;;;;;;;5.95;2.10;;;;;;;;;;5111754;28;20700;-76
2022/02/07 03:42:26;;;;;;;4.90;1.67;;;;;;;;;;5111829;28;20223;-75
2022/02/07 03:44:54;;;;;;;14.27;2.10;;;;;;;;;;5111506;28;20618;-76
2022/02/07 03:47:22;;;;;;;4.65;1.48;;;;;;;;;;5118633;27;20200;-75
2022/02/07 03:49:49;;;;;;;9.70;2.13;;;;;;;;;;5120471;27;20216;-76
2022/02/07 03:52:16;;;;;;;7.32;1.70;;;;;;;;;;5094067;27;20715;-75
2022/02/07 03:54:43;;;;;;;8.88;1.88;;;;;;;;;;5091403;28;20221;-75
2022/02/07 03:57:10;;;;;;;7.93;2.30;;;;;;;;;;5090978;28;20203;-75
2022/02/07 03:59:37;;;;;;;8.45;1.98;;;;;;;;;;5098317;28;20228;-75
2022/02/07 04:02:06;;;;;;;11.63;1.90;;;;;;;;;;5104001;28;20220;-75
2022/02/07 04:04:33;;;;;;;4.55;1.83;;;;;;;;;;5118513;27;20201;-75
2022/02/07 04:07:01;;;;;;;9.23;2.65;;;;;;;;;;5118434;27;20276;-76
2022/02/07 04:09:34;;;;;;;9.40;2.25;;;;;;;;;;5129362;27;20291;-76
2022/02/07 04:12:06;;;;;;;13.43;2.30;;;;;;;;;;5132268;27;20195;-76
2022/02/07 04:14:34;;;;;;;5.15;1.75;;;;;;;;;;5132256;27;20219;-77
2022/02/07 04:17:01;;;;;;;9.55;2.10;;;;;;;;;;5103587;27;20558;-75
2022/02/07 04:19:33;;;;;;;7.60;1.92;;;;;;;;;;5091207;28;20208;-76
2022/02/07 04:22:03;;;;;;;4.28;2.03;;;;;;;;;;5092940;28;20221;-77
2022/02/07 04:24:30;;;;;;;5.00;2.00;;;;;;;;;;5093150;28;20201;-75
2022/02/07 04:26:57;;;;;;;7.55;2.58;;;;;;;;;;5118304;27;20202;-75
2022/02/07 04:29:25;;;;;;;12.10;2.15;;;;;;;;;;5117512;27;20193;-75
2022/02/07 04:31:52;;;;;;;7.43;1.95;;;;;;;;;;5109789;27;20205;-75
2022/02/07 04:34:20;;;;;;;10.65;1.85;;;;;;;;;;5090864;28;20611;-77
2022/02/07 04:36:54;;;;;;;5.90;1.75;;;;;;;;;;5089266;28;20201;-76
2022/02/07 04:39:21;;;;;;;10.02;2.30;;;;;;;;;;5090727;28;20192;-75
2022/02/07 04:41:49;;;;;;;9.20;1.95;;;;;;;;;;5089567;28;20217;-75
2022/02/07 04:44:22;;;;;;;4.20;2.10;;;;;;;;;;5092274;28;20208;-76
2022/02/07 04:47:02;;;;;;;11.15;2.03;;;;;;;;;;5091102;28;20197;-77
2022/02/07 04:49:48;;;;;;;9.98;1.88;;;;;;;;;;5118747;27;21103;-75
2022/02/07 04:52:41;;;;;;;8.95;1.90;;;;;;;;;;5122544;27;20188;-76
2022/02/07 04:55:15;;;;;;;5.82;2.17;;;;;;;;;;5089659;28;20882;-76
2022/02/07 04:57:51;;;;;;;12.38;2.80;;;;;;;;;;5090155;28;20227;-76
2022/02/07 05:00:36;;;;;;;7.50;2.05;;;;;;;;;;5108490;28;20212;-76
2022/02/07 05:03:07;;;;;;;8.63;2.25;;;;;;;;;;5108706;28;20212;-76
2022/02/07 05:13:45;;;;;;;12.05;2.63;;;;;;;;;;5108199;28;20185;-76
2022/02/07 05:16:19;;;;;;;10.57;2.10;;;;;;;;;;5110740;28;20231;-75
2022/02/07 05:18:48;;;;;;;10.05;2.50;;;;;;;;;;5110565;28;20274;-76
2022/02/07 05:21:15;;;;;;;13.70;2.35;;;;;;;;;;5102113;28;20674;-76
2022/02/07 05:23:44;;;;;;;13.73;2.80;;;;;;;;;;5106469;28;20195;-76
2022/02/07 05:26:11;;;;;;;11.73;2.83;;;;;;;;;;5114009;27;20201;-75
2022/02/07 05:28:39;;;;;;;6.85;2.53;;;;;;;;;;5120274;27;20204;-75
2022/02/07 05:31:08;;;;;;;8.15;2.85;;;;;;;;;;5089676;28;20304;-75
2022/02/07 05:33:35;;;;;;;9.35;2.80;;;;;;;;;;5089970;28;20193;-75
2022/02/07 05:36:02;;;;;;;12.52;2.70;;;;;;;;;;5091650;28;20279;-77
2022/02/07 05:38:32;;;;;;;15.80;3.22;;;;;;;;;;5105875;28;20200;-75
2022/02/07 05:41:03;;;;;;;16.92;3.20;;;;;;;;;;5105685;28;20640;-76
2022/02/07 05:43:30;;;;;;;9.70;2.30;;;;;;;;;;5116559;28;20316;-75
2022/02/07 05:45:57;;;;;;;10.90;3.15;;;;;;;;;;5112054;28;20200;-76
2022/02/07 05:48:24;;;;;;;17.40;3.20;;;;;;;;;;5109750;28;20193;-76
2022/02/07 05:50:51;;;;;;;6.80;2.40;;;;;;;;;;5101791;28;20223;-75
2022/02/07 05:53:18;;;;;;;12.90;2.88;;;;;;;;;;5106894;28;20197;-77
2022/02/07 05:55:46;;;;;;;10.05;2.80;;;;;;;;;;5109554;28;20562;-76
2022/02/07 05:58:14;;;;;;;8.65;3.05;;;;;;;;;;5112857;27;20645;-75
2022/02/07 06:00:41;;;;;;;13.75;2.78;;;;;;;;;;5118792;27;20224;-75
2022/02/07 06:03:09;;;;;;;12.48;2.35;;;;;;;;;;5127652;27;20235;-76
2022/02/07 06:05:36;;;;;;;16.35;3.13;;;;;;;;;;5133940;27;20568;-75
2022/02/07 06:08:03;;;;;;;7.07;2.78;;;;;;;;;;5131951;27;20202;-76
2022/02/07 06:10:30;;;;;;;12.13;2.70;;;;;;;;;;5133909;27;20688;-77
2022/02/07 06:12:57;;;;;;;12.88;2.30;;;;;;;;;;5134732;27;20188;-75
2022/02/07 06:15:26;;;;;;;10.95;3.17;;;;;;;;;;5116479;27;20204;-76
2022/02/07 06:17:57;;;;;;;17.77;3.22;;;;;;;;;;5121046;27;20215;-75
2022/02/07 06:20:24;;;;;;;9.20;2.88;;;;;;;;;;5121283;27;20683;-75
2022/02/07 06:22:52;;;;;;;17.70;2.90;;;;;;;;;;5098344;28;20239;-75
2022/02/07 06:25:19;;;;;;;11.38;3.15;;;;;;;;;;5091186;28;20201;-76
2022/02/07 06:27:47;;;;;;;13.95;2.90;;;;;;;;;;5093455;28;20224;-76
2022/02/07 06:30:14;;;;;;;12.68;2.55;;;;;;;;;;5093291;28;20221;-77
2022/02/07 06:32:42;;;;;;;20.00;2.63;;;;;;;;;;5105900;28;20693;-75
2022/02/07 06:35:10;;;;;;;13.90;3.65;;;;;;;;;;5112993;28;20231;-76
2022/02/07 06:37:37;;;;;;;9.98;2.45;;;;;;;;;;5114393;28;20224;-74
2022/02/07 06:40:05;;;;;;;4.88;1.88;;;;;;;;;;5117742;27;20215;-77
2022/02/07 06:42:32;;;;;;;13.57;3.65;;;;;;;;;;5116679;27;20235;-77
2022/02/07 06:44:59;;;;;;;12.20;2.97;;;;;;;;;;5093113;28;20694;-75
2022/02/07 06:47:28;;;;;;;11.43;4.30;;;;;;;;;;5092404;28;20197;-76
2022/02/07 06:49:56;;;;;;;12.38;2.70;;;;;;;;;;5091985;28;20217;-76
2022/02/07 06:52:24;;;;;;;9.07;2.90;;;;;;;;;;5091875;28;20200;-79
2022/02/07 06:54:51;;;;;;;7.85;3.05;;;;;;;;;;5092654;28;20240;-75
2022/02/07 06:57:21;;;;;;;13.60;3.10;;;;;;;;;;5094390;28;20552;-76
2022/02/07 06:59:49;;;;;;;14.38;3.47;;;;;;;;;;5118635;27;20294;-82
2022/02/07 07:02:19;;;;;;;9.80;3.33;;;;;;;;;;5120090;27;20224;-74
2022/02/07 07:04:48;;;;;;;13.57;3.95;;;;;;;;;;5128839;27;20200;-79
2022/02/07 07:07:18;;;;;;;12.73;3.53;;;;;;;;;;5109894;28;20200;-81
2022/02/07 07:09:47;;;;;;;22.13;4.65;;;;;;;;;;5124915;27;20222;-78
2022/02/07 07:12:15;;;;;;;9.18;3.80;;;;;;;;;;5115084;27;20664;-76
2022/02/07 07:14:45;;;;;;;12.90;3.63;;;;;;;;;;5111567;28;20335;-76
2022/02/07 07:17:13;;;;;;;28.52;4.75;;;;;;;;;;5113991;28;20192;-76
2022/02/07 07:19:40;;;;;;;18.30;6.00;;;;;;;;;;5109314;28;20215;-76
2022/02/07 07:22:07;;;;;;;10.23;4.60;;;;;;;;;;5117704;27;20656;-77
2022/02/07 07:24:37;;;;;;;17.25;4.30;;;;;;;;;;5111622;27;20188;-76
2022/02/07 07:27:05;;;;;;;11.43;3.92;;;;;;;;;;5107707;28;20192;-76
2022/02/07 07:29:36;;;;;;;13.85;3.45;;;;;;;;;;5109401;28;20216;-78
2022/02/07 07:32:05;;;;;;;16.58;4.07;;;;;;;;;;5112823;28;20185;-74
2022/02/07 07:34:32;;;;;;;13.55;3.67;;;;;;;;;;5106539;28;20328;-75
2022/02/07 07:37:00;;;;;;;14.75;3.30;;;;;;;;;;5109008;28;20207;-75
2022/02/07 07:39:27;;;;;;;18.63;3.60;;;;;;;;;;5112841;28;20668;-74
2022/02/07 07:41:57;;;;;;;14.55;3.00;;;;;;;;;;5092420;28;20197;-79
2022/02/07 07:44:29;;;;;;;13.45;3.10;;;;;;;;;;5113599;27;20196;-77
2022/02/07 07:46:58;;;;;;;8.73;2.92;;;;;;;;;;5116960;27;20188;-76
2022/02/07 07:49:34;;;;;;;8.93;2.53;;;;;;;;;;5118325;22;20277;-81
2022/02/07 07:52:07;;;;;;;16.60;3.53;;;;;;;;;;5049105;28;20198;-77
2022/02/07 07:54:48;;;;;;;13.30;3.35;;;;;;;;;;5049278;28;20217;-79
2022/02/07 08:02:38;;;;;;;10.63;2.92;;;;;;;;;;5045098;28;20221;-77
2022/02/07 08:05:16;;;;;;;15.88;3.33;;;;;;;;;;5046439;28;20195;-76
2022/02/07 08:07:44;;;;;;;14.77;3.33;;;;;;;;;;5048499;28;20305;-75
2022/02/07 08:12:53;;;;;;;17.67;4.32;;;;;;;;;;5030434;28;20590;-76
2022/02/07 08:15:20;;;;;;;9.30;3.35;;;;;;;;;;5049927;28;20206;-76
2022/02/07 08:17:47;;;;;;;10.88;3.20;;;;;;;;;;5045577;28;20218;-76
2022/02/07 08:20:15;;;;;;;10.20;3.30;;;;;;;;;;5044968;28;20717;-75
2022/02/07 08:22:42;;;;;;;11.27;3.47;;;;;;;;;;5045540;28;20222;-77
2022/02/07 08:25:09;;;;;;;9.25;4.40;;;;;;;;;;5048860;28;20199;-75
2022/02/07 08:27:38;;;;;;;18.95;4.40;;;;;;;;;;5048198;28;20197;-75
2022/02/07 08:30:08;;;;;;;8.50;3.33;;;;;;;;;;5030125;28;20214;-74
2022/02/07 08:32:35;;;;;;;14.60;3.40;;;;;;;;;;5049707;28;20195;-80
2022/02/07 08:35:03;;;;;;;11.25;4.07;;;;;;;;;;5047546;28;20206;-77
2022/02/07 08:37:31;;;;;;;11.07;3.30;;;;;;;;;;5047176;28;20293;-77
2022/02/07 08:39:58;;;;;;;16.42;3.75;;;;;;;;;;5042541;28;20585;-75
2022/02/07 08:42:25;;;;;;;21.08;3.78;;;;;;;;;;5047087;28;20220;-76
2022/02/07 08:44:52;;;;;;;9.82;3.72;;;;;;;;;;5046222;28;20715;-76
2022/02/07 08:47:20;;;;;;;11.13;3.47;;;;;;;;;;5048981;28;20186;-77
2022/02/07 08:49:48;;;;;;;12.82;3.40;;;;;;;;;;5047606;28;20253;-76
2022/02/07 08:52:16;;;;;;;20.45;4.18;;;;;;;;;;5048076;28;20198;-75
2022/02/07 08:54:44;;;;;;;15.57;3.70;;;;;;;;;;5047627;28;20554;-74
2022/02/07 08:57:17;;;;;;;10.82;3.72;;;;;;;;;;5028266;28;20518;-75
2022/02/07 08:59:57;;;;;;;18.60;3.83;;;;;;;;;;5044094;28;20211;-76
2022/02/07 09:02:51;;;;;;;14.70;3.35;;;;;;;;;;5048472;28;20198;-76
2022/02/07 09:05:35;;;;;;;11.50;3.17;;;;;;;;;;5049033;28;20198;-75
2022/02/07 09:08:22;;;;;;;9.82;3.65;;;;;;;;;;5032455;28;20195;-74
2022/02/07 09:10:50;;;;;;;12.55;2.85;;;;;;;;;;5044954;28;20222;-75
2022/02/07 09:13:18;;;;;;;15.55;3.45;;;;;;;;;;5044631;28;20194;-74
2022/02/07 09:16:01;;;;;;;8.98;2.88;;;;;;;;;;5044343;28;20194;-75
2022/02/07 09:18:30;;;;;;;11.77;4.57;;;;;;;;;;5033083;28;20204;-75
2022/02/07 09:20:59;;;;;;;13.95;3.20;;;;;;;;;;5048606;28;20206;-76
2022/02/07 09:23:27;;;;;;;12.50;4.05;;;;;;;;;;5048107;28;20219;-75
2022/02/07 09:25:54;;;;;;;10.43;3.00;;;;;;;;;;5047433;28;20206;-77
2022/02/07 09:28:22;;;;;;;19.05;3.90;;;;;;;;;;5044519;28;20230;-75
2022/02/07 09:30:49;;;;;;;18.52;3.40;;;;;;;;;;5043265;28;20207;-76
2022/02/07 09:33:16;;;;;;;11.75;2.80;;;;;;;;;;5049235;28;20290;-75
2022/02/07 09:35:45;;;;;;;13.13;3.83;;;;;;;;;;5052316;28;20198;-75
2022/02/07 09:38:12;;;;;;;11.63;3.42;;;;;;;;;;5052232;28;20198;-74
2022/02/07 09:40:41;;;;;;;14.30;3.95;;;;;;;;;;5032769;28;20218;-76
2022/02/07 09:43:09;;;;;;;7.82;3.25;;;;;;;;;;5051805;28;20257;-76
2022/02/07 09:45:39;;;;;;;10.63;3.22;;;;;;;;;;5048380;28;20210;-76
2022/02/07 09:48:08;;;;;;;8.50;3.15;;;;;;;;;;5027679;28;20563;-77
2022/02/07 09:50:35;;;;;;;14.27;3.80;;;;;;;;;;5050734;28;20627;-75
2022/02/07 09:53:04;;;;;;;10.90;3.75;;;;;;;;;;5045091;28;20545;-74
2022/02/07 09:55:31;;;;;;;10.77;3.25;;;;;;;;;;5039069;28;20648;-76
2022/02/07 09:57:59;;;;;;;8.35;3.45;;;;;;;;;;5050683;28;20187;-75
2022/02/07 10:00:30;;;;;;;15.30;3.35;;;;;;;;;;5050880;28;20580;-75
2022/02/07 10:03:07;;;;;;;10.85;3.35;;;;;;;;;;5052245;28;20222;-76
2022/02/07 10:05:45;;;;;;;20.52;6.47;;;;;;;;;;5053045;28;20194;-76
2022/02/07 10:08:18;;;;;;;15.35;4.45;;;;;;;;;;5032083;28;20706;-76
2022/02/07 10:11:03;;;;;;;12.82;3.45;;;;;;;;;;5047961;28;20225;-75
2022/02/07 10:13:41;;;;;;;16.10;3.53;;;;;;;;;;5038848;28;20825;-75
2022/02/07 10:16:25;;;;;;;15.90;4.50;;;;;;;;;;5052381;28;20210;-75
2022/02/07 10:19:03;;;;;;;12.73;4.20;;;;;;;;;;5049406;28;20199;-76
2022/02/07 10:22:00;;;;;;;9.98;3.40;;;;;;;;;;5016214;28;20215;-75
2022/02/07 10:35:46;;;;;;;10.27;3.50;;;;;;;;;;5046736;28;20202;-76
2022/02/07 10:38:23;;;;;;;18.15;3.55;;;;;;;;;;5032268;28;20268;-76
2022/02/07 10:41:18;;;;;;;8.90;3.40;;;;;;;;;;5034124;28;20299;-74
2022/02/07 10:43:58;;;;;;;14.45;4.20;;;;;;;;;;5032304;28;20281;-76
2022/02/07 10:46:32;;;;;;;11.02;3.75;;;;;;;;;;5040671;28;20285;-77
2022/02/07 10:49:07;;;;;;;16.67;5.10;;;;;;;;;;5041312;28;20962;-78
2022/02/07 10:51:36;;;;;;;16.88;4.43;;;;;;;;;;5047602;28;20233;-74
2022/02/07 10:54:05;;;;;;;16.58;4.25;;;;;;;;;;5048713;28;20199;-76
2022/02/07 10:56:38;;;;;;;12.57;3.47;;;;;;;;;;5030605;28;20195;-78
2022/02/07 10:59:08;;;;;;;11.55;4.65;;;;;;;;;;5034046;28;20692;-77
2022/02/07 11:02:02;;;;;;;15.35;3.65;;;;;;;;;;5048566;28;20222;-75
2022/02/07 11:04:32;;;;;;;10.15;3.65;;;;;;;;;;5035099;28;20714;-76
2022/02/07 11:07:01;;;;;;;17.63;4.03;;;;;;;;;;5026923;28;20201;-77
2022/02/07 11:09:36;;;;;;;10.65;3.20;;;;;;;;;;5047461;28;20187;-76
2022/02/07 11:14:58;;;;;;;12.55;4.15;;;;;;;;;;5033839;28;20187;-75
2022/02/07 11:17:37;;;;;;;12.85;4.68;;;;;;;;;;5033503;28;20703;-77
2022/02/07 11:20:24;;;;;;;13.10;3.95;;;;;;;;;;5032868;28;20218;-75
2022/02/07 11:23:05;;;;;;;12.20;3.80;;;;;;;;;;5045515;28;20209;-77
2022/02/07 11:25:43;;;;;;;18.02;4.03;;;;;;;;;;5029295;28;20316;-79
2022/02/07 11:28:19;;;;;;;10.50;2.97;;;;;;;;;;5046980;28;20195;-75
2022/02/07 11:30:47;;;;;;;14.27;4.00;;;;;;;;;;5050120;28;20214;-76
2022/02/07 11:33:29;;;;;;;11.95;5.10;;;;;;;;;;5032536;28;20218;-76
2022/02/07 11:35:56;;;;;;;12.85;3.75;;;;;;;;;;5048230;28;20220;-76
2022/02/07 11:38:24;;;;;;;10.45;4.72;;;;;;;;;;5048079;28;20203;-76
2022/02/07 11:40:59;;;;;;;9.63;3.78;;;;;;;;;;5046838;28;20214;-76
2022/02/07 11:43:29;;;;;;;11.05;4.10;;;;;;;;;;5046152;28;20683;-75
2022/02/07 11:45:57;;;;;;;12.20;4.07;;;;;;;;;;5047638;28;20191;-75
2022/02/07 11:48:31;;;;;;;12.07;4.07;;;;;;;;;;5037418;28;20191;-77
2022/02/07 11:50:59;;;;;;;12.18;5.75;;;;;;;;;;5029966;28;20223;-74
2022/02/07 11:53:31;;;;;;;10.73;4.10;;;;;;;;;;5049356;28;20780;-77
2022/02/07 11:56:07;;;;;;;16.58;4.97;;;;;;;;;;5049476;28;20199;-75
2022/02/07 11:58:46;;;;;;;14.98;4.43;;;;;;;;;;5050257;28;20273;-75
2022/02/07 12:01:14;;;;;;;15.23;4.45;;;;;;;;;;5047785;28;20313;-75
2022/02/07 12:03:42;;;;;;;13.98;4.20;;;;;;;;;;5044550;28;20321;-75
2022/02/07 12:06:11;;;;;;;9.27;2.78;;;;;;;;;;5047468;28;20205;-74
2022/02/07 12:08:39;;;;;;;10.23;4.00;;;;;;;;;;5048832;28;20272;-76
2022/02/07 12:11:08;;;;;;;15.07;3.63;;;;;;;;;;5032139;28;20807;-75
2022/02/07 12:13:36;;;;;;;9.35;3.67;;;;;;;;;;5032666;28;20241;-77
2022/02/07 12:16:07;;;;;;;16.45;3.65;;;;;;;;;;5040828;28;20281;-75
2022/02/07 12:18:34;;;;;;;17.67;5.20;;;;;;;;;;5050804;28;20198;-75
2022/02/07 12:21:16;;;;;;;15.68;4.90;;;;;;;;;;5049667;28;20556;-74
2022/02/07 12:23:43;;;;;;;13.75;4.20;;;;;;;;;;5032093;28;20222;-75
2022/02/07 12:26:16;;;;;;;22.65;6.50;;;;;;;;;;5028602;28;20191;-74
2022/02/07 12:28:45;;;;;;;14.35;4.57;;;;;;;;;;5046687;28;20191;-75
2022/02/07 12:31:19;;;;;;;12.35;4.97;;;;;;;;;;5030809;28;20221;-79
2022/02/07 12:33:47;;;;;;;19.75;5.97;;;;;;;;;;5029117;28;20194;-77
2022/02/07 12:36:17;;;;;;;23.48;5.75;;;;;;;;;;5029281;28;20194;-74
2022/02/07 12:38:45;;;;;;;7.93;3.95;;;;;;;;;;5029774;28;20196;-74
2022/02/07 12:41:13;;;;;;;10.80;4.13;;;;;;;;;;5045813;28;20632;-74
2022/02/07 12:43:43;;;;;;;19.70;3.88;;;;;;;;;;5028168;28;20226;-78
2022/02/07 12:46:12;;;;;;;14.32;4.35;;;;;;;;;;5020401;28;20241;-76
2022/02/07 12:48:48;;;;;;;6.30;3.38;;;;;;;;;;5045409;28;20202;-77
2022/02/07 12:51:16;;;;;;;9.93;3.10;;;;;;;;;;5045494;28;20226;-78
2022/02/07 12:53:44;;;;;;;15.30;6.28;;;;;;;;;;5047796;28;20289;-75
2022/02/07 12:56:11;;;;;;;16.45;6.30;;;;;;;;;;5049381;28;20197;-75
2022/02/07 12:58:40;;;;;;;11.02;4.25;;;;;;;;;;5046630;28;20206;-76
2022/02/07 13:01:23;;;;;;;11.20;3.78;;;;;;;;;;5049025;28;20695;-77
2022/02/07 13:03:52;;;;;;;10.40;3.78;;;;;;;;;;5034172;28;20237;-76
2022/02/07 13:06:24;;;;;;;14.15;4.30;;;;;;;;;;5049848;28;20201;-76
2022/02/07 13:08:51;;;;;;;9.85;3.92;;;;;;;;;;5045837;28;20183;-77
2022/02/07 13:11:25;;;;;;;15.70;4.75;;;;;;;;;;5045124;28;20268;-78
2022/02/07 13:13:52;;;;;;;6.22;2.95;;;;;;;;;;5047428;28;20190;-78
2022/02/07 13:16:19;;;;;;;7.28;3.00;;;;;;;;;;5045767;28;20651;-76
2022/02/07 13:18:46;;;;;;;7.78;3.25;;;;;;;;;;5046538;28;20209;-78
2022/02/07 13:21:17;;;;;;;6.45;2.97;;;;;;;;;;5046668;28;20217;-75
2022/02/07 13:23:46;;;;;;;9.63;3.38;;;;;;;;;;5034249;28;20241;-76
2022/02/07 13:26:13;;;;;;;9.73;3.80;;;;;;;;;;5034209;28;20229;-75
2022/02/07 13:28:42;;;;;;;6.87;3.20;;;;;;;;;;5026618;28;20526;-74
2022/02/07 13:31:11;;;;;;;16.30;3.10;;;;;;;;;;5046208;28;20468;-76
2022/02/07 13:33:53;;;;;;;11.75;3.97;;;;;;;;;;5029233;28;20598;-77
2022/02/07 13:36:39;;;;;;;6.78;2.45;;;;;;;;;;5031814;28;20236;-78
2022/02/07 13:39:07;;;;;;;9.60;3.25;;;;;;;;;;5048758;28;20252;-77
2022/02/07 13:41:34;;;;;;;9.32;3.50;;;;;;;;;;5048648;28;20230;-78
2022/02/07 13:44:02;;;;;;;9.55;2.70;;;;;;;;;;5041075;28;20226;-74
2022/02/07 13:46:30;;;;;;;4.60;2.67;;;;;;;;;;5045332;28;20198;-78
2022/02/07 13:48:57;;;;;;;8.32;2.90;;;;;;;;;;5029209;28;20412;-77
2022/02/07 13:51:26;;;;;;;6.95;2.72;;;;;;;;;;5044577;28;20550;-77
2022/02/07 13:53:55;;;;;;;11.95;3.30;;;;;;;;;;5030001;28;20553;-80
2022/02/07 13:56:29;;;;;;;9.90;2.65;;;;;;;;;;5048245;28;20276;-77
2022/02/07 13:58:56;;;;;;;13.00;2.60;;;;;;;;;;5046784;28;20198;-77
2022/02/07 14:01:34;;;;;;;9.40;3.07;;;;;;;;;;5046267;28;20981;-76
2022/02/07 14:04:01;;;;;;;10.90;3.20;;;;;;;;;;5044778;28;20473;-77
2022/02/07 14:06:30;;;;;;;10.82;3.40;;;;;;;;;;5047793;28;20197;-77
2022/02/07 14:08:59;;;;;;;13.80;2.83;;;;;;;;;;5046945;28;20688;-77
2022/02/07 14:11:27;;;;;;;10.95;3.42;;;;;;;;;;5048787;28;20479;-77
2022/02/07 14:13:55;;;;;;;6.90;2.73;;;;;;;;;;5048661;28;20201;-78
2022/02/07 14:16:23;;;;;;;8.43;2.50;;;;;;;;;;5046963;28;20954;-79
2022/02/07 14:18:51;;;;;;;5.30;3.40;;;;;;;;;;5029191;28;20533;-77
2022/02/07 14:21:19;;;;;;;7.30;2.50;;;;;;;;;;5047423;28;21053;-77
2022/02/07 14:23:47;;;;;;;13.40;3.20;;;;;;;;;;5046119;28;20825;-76
2022/02/07 14:26:18;;;;;;;11.40;3.03;;;;;;;;;;5051178;28;20441;-77
2022/02/07 14:28:46;;;;;;;9.10;2.70;;;;;;;;;;5052140;28;20468;-76
2022/02/07 14:31:14;;;;;;;6.00;2.93;;;;;;;;;;5049978;28;20464;-80
2022/02/07 14:33:42;;;;;;;9.13;2.93;;;;;;;;;;5051798;28;20452;-76
2022/02/07 14:36:10;;;;;;;3.27;2.00;;;;;;;;;;5036125;28;20446;-78
2022/02/07 14:38:38;;;;;;;5.70;2.10;;;;;;;;;;5050249;28;20464;-77
2022/02/07 14:41:08;;;;;;;6.10;2.60;;;;;;;;;;5048078;28;20454;-76
2022/02/07 14:43:38;;;;;;;6.07;2.30;;;;;;;;;;5047090;28;20464;-77
2022/02/07 14:46:10;;;;;;;6.53;2.37;;;;;;;;;;5048188;28;21032;-78
2022/02/07 14:48:38;;;;;;;5.97;2.40;;;;;;;;;;5051381;28;20433;-76
2022/02/07 14:51:07;;;;;;;7.23;2.37;;;;;;;;;;5051373;28;20586;-77
2022/02/07 14:53:34;;;;;;;4.83;2.10;;;;;;;;;;5051468;28;20854;-75
2022/02/07 14:56:01;;;;;;;6.50;2.47;;;;;;;;;;5050023;28;20480;-79
2022/02/07 14:58:28;;;;;;;4.40;2.40;;;;;;;;;;5050644;28;20456;-76
2022/02/07 15:00:57;;;;;;;11.67;2.63;;;;;;;;;;5053240;28;20457;-76
2022/02/07 15:03:24;;;;;;;7.10;2.30;;;;;;;;;;5048180;28;20461;-77
2022/02/07 15:05:54;;;;;;;3.93;2.20;;;;;;;;;;5047414;28;20492;-76
2022/02/07 15:08:21;;;;;;;7.32;2.42;;;;;;;;;;5047959;28;20522;-77
2022/02/07 15:10:48;;;;;;;6.78;2.53;;;;;;;;;;5049452;28;20213;-78
2022/02/07 15:13:16;;;;;;;5.60;3.13;;;;;;;;;;5049457;28;20289;-77
2022/02/07 15:15:43;;;;;;;12.57;2.27;;;;;;;;;;5051559;28;20448;-82
2022/02/07 15:18:12;;;;;;;11.10;2.28;;;;;;;;;;5044590;28;20453;-81
2022/02/07 15:20:48;;;;;;;13.17;2.97;;;;;;;;;;5042407;28;20575;-75
2022/02/07 15:23:19;;;;;;;5.23;2.57;;;;;;;;;;5042153;28;20429;-77
2022/02/07 15:25:47;;;;;;;7.95;3.08;;;;;;;;;;5047836;28;20591;-75
2022/02/07 15:28:14;;;;;;;8.70;3.10;;;;;;;;;;5049703;28;20206;-76
2022/02/07 15:30:45;;;;;;;7.63;3.60;;;;;;;;;;5050606;28;20465;-75
2022/02/07 15:33:15;;;;;;;6.43;3.20;;;;;;;;;;5048777;28;20209;-74
2022/02/07 15:35:43;;;;;;;9.30;3.30;;;;;;;;;;5049942;28;20457;-75
2022/02/07 15:38:10;;;;;;;6.40;2.60;;;;;;;;;;5026361;28;20457;-74
2022/02/07 15:40:37;;;;;;;7.43;2.95;;;;;;;;;;5046980;28;20217;-77
2022/02/07 15:43:04;;;;;;;4.65;2.33;;;;;;;;;;5046840;28;20194;-77
2022/02/07 15:45:33;;;;;;;3.88;2.20;;;;;;;;;;5032172;28;20219;-76
2022/02/07 15:48:00;;;;;;;7.00;1.90;;;;;;;;;;5049280;28;20202;-76
2022/02/07 15:50:29;;;;;;;12.75;2.47;;;;;;;;;;5048646;28;20489;-75
2022/02/07 15:52:59;;;;;;;5.20;2.08;;;;;;;;;;5047626;28;20210;-79
2022/02/07 15:55:27;;;;;;;14.35;2.63;;;;;;;;;;5045298;28;20190;-75
2022/02/07 15:57:54;;;;;;;4.97;2.40;;;;;;;;;;5046573;28;20195;-74
2022/02/07 16:00:21;;;;;;;6.43;2.30;;;;;;;;;;5047951;28;20237;-76
2022/02/07 16:02:50;;;;;;;5.45;1.90;;;;;;;;;;5050050;28;20612;-75
2022/02/07 16:05:18;;;;;;;5.25;2.15;;;;;;;;;;5048300;28;20222;-78
2022/02/07 16:07:47;;;;;;;8.10;2.47;;;;;;;;;;5047999;28;20222;-75
2022/02/07 16:10:14;;;;;;;4.22;1.70;;;;;;;;;;5049610;28;20260;-79
2022/02/07 16:12:43;;;;;;;4.55;1.90;;;;;;;;;;5045585;28;20190;-78
2022/02/07 16:15:29;;;;;;;4.78;2.45;;;;;;;;;;5044530;28;20245;-77
2022/02/07 16:17:56;;;;;;;5.97;2.58;;;;;;;;;;5043558;28;20672;-76
2022/02/07 16:20:24;;;;;;;5.18;2.30;;;;;;;;;;5050319;28;20265;-81
2022/02/07 16:22:52;;;;;;;7.47;2.13;;;;;;;;;;5048695;28;20249;-74
2022/02/07 16:25:20;;;;;;;5.60;1.90;;;;;;;;;;5045577;28;20223;-78